Time;durP1;ratioP1;P1;durP2;ratioP2;P2;SDS_P1;SDS_P2;PMS_P1;PMS_P2;Temp;Humidity;BMP_temperature;BMP_pressure;BME280_temperature;BME280_humidity;BME280_pressure;Samples;Min_cycle;Max_cycle;Signal;HPM_P1;HPM_P2
2021/12/22 00:00:12;;;;;;;43.20;18.43;;;-4.50;99.90;;;;;;5072246;28;20090;-75
2021/12/22 00:02:46;;;;;;;39.33;18.53;;;-4.40;99.90;;;;;;5072368;28;20562;-75
2021/12/22 00:05:14;;;;;;;39.10;16.47;;;-4.50;99.90;;;;;;5071755;28;20052;-75
2021/12/22 00:07:40;;;;;;;37.40;15.97;;;-4.50;99.90;;;;;;5072186;28;20048;-75
2021/12/22 00:10:08;;;;;;;42.43;18.00;;;-4.50;99.90;;;;;;5072291;28;20135;-74
2021/12/22 00:12:35;;;;;;;38.50;18.73;;;-4.50;99.90;;;;;;5072556;28;20114;-74
2021/12/22 00:15:02;;;;;;;38.40;16.63;;;-4.50;99.90;;;;;;5071618;28;20213;-75
2021/12/22 00:17:30;;;;;;;36.00;17.50;;;-4.50;99.90;;;;;;5072055;28;20080;-74
2021/12/22 00:19:57;;;;;;;41.30;18.40;;;-4.60;99.90;;;;;;5071818;28;20049;-75
2021/12/22 00:22:24;;;;;;;39.33;16.73;;;-4.70;99.90;;;;;;5071715;28;20087;-75
2021/12/22 00:24:51;;;;;;;40.10;17.33;;;-4.70;99.90;;;;;;5071278;28;20535;-75
2021/12/22 00:27:18;;;;;;;37.33;16.60;;;-4.50;99.90;;;;;;5071932;28;20052;-75
2021/12/22 00:29:48;;;;;;;44.53;18.03;;;-4.60;99.90;;;;;;5071716;28;20084;-75
2021/12/22 00:32:17;;;;;;;41.97;17.90;;;-4.50;99.90;;;;;;5071910;28;20048;-74
2021/12/22 00:34:51;;;;;;;37.20;17.20;;;-4.50;99.90;;;;;;5070572;28;20535;-77
2021/12/22 00:37:19;;;;;;;43.13;17.27;;;-4.40;99.90;;;;;;5071573;28;20068;-76
2021/12/22 00:39:47;;;;;;;40.47;17.50;;;-4.40;99.90;;;;;;5071605;28;20087;-74
2021/12/22 00:42:15;;;;;;;43.80;19.63;;;-4.40;99.90;;;;;;5071834;28;20052;-74
2021/12/22 00:44:46;;;;;;;42.30;18.97;;;-4.50;99.90;;;;;;5070576;28;20121;-75
2021/12/22 00:47:13;;;;;;;38.47;16.17;;;-4.50;99.90;;;;;;5071283;28;20055;-75
2021/12/22 00:49:40;;;;;;;31.93;15.57;;;-4.60;99.90;;;;;;5071332;28;20050;-76
2021/12/22 00:52:08;;;;;;;38.20;16.83;;;-4.60;99.90;;;;;;5071083;28;20088;-74
2021/12/22 00:54:36;;;;;;;38.13;16.70;;;-4.60;99.90;;;;;;5071373;28;20080;-75
2021/12/22 00:57:05;;;;;;;38.37;16.77;;;-4.70;99.90;;;;;;5070739;28;20095;-75
2021/12/22 00:59:33;;;;;;;37.90;16.30;;;-4.70;99.90;;;;;;5071429;28;20052;-76
2021/12/22 01:02:00;;;;;;;37.40;16.43;;;-4.70;99.90;;;;;;5071111;28;20048;-75
2021/12/22 01:04:27;;;;;;;42.10;17.17;;;-4.70;99.90;;;;;;5070869;28;20135;-75
2021/12/22 01:06:54;;;;;;;40.23;18.17;;;-4.70;99.90;;;;;;5070804;28;20076;-75
2021/12/22 01:09:23;;;;;;;41.53;16.93;;;-4.80;99.90;;;;;;5071031;28;20488;-74
2021/12/22 01:11:51;;;;;;;41.00;18.23;;;-4.80;99.90;;;;;;5071096;28;20048;-74
2021/12/22 01:14:18;;;;;;;40.27;17.57;;;-4.80;99.90;;;;;;5071069;28;20102;-75
2021/12/22 01:16:48;;;;;;;40.63;18.70;;;-4.90;99.90;;;;;;5070472;28;20056;-75
2021/12/22 01:19:26;;;;;;;41.30;17.70;;;-4.90;99.90;;;;;;5071337;28;20052;-75
2021/12/22 01:22:01;;;;;;;43.83;17.83;;;-4.70;99.90;;;;;;5070878;28;20047;-76
2021/12/22 01:24:33;;;;;;;44.93;18.80;;;-4.80;99.90;;;;;;5071248;28;20086;-75
2021/12/22 01:27:07;;;;;;;46.90;18.50;;;-4.70;99.90;;;;;;5070983;28;20060;-74
2021/12/22 01:29:35;;;;;;;43.80;20.10;;;-4.70;99.90;;;;;;5070817;28;20195;-75
2021/12/22 01:32:02;;;;;;;38.57;17.83;;;-4.70;99.90;;;;;;5070882;28;20076;-74
2021/12/22 01:34:29;;;;;;;38.10;17.97;;;-4.80;99.90;;;;;;5071054;28;20049;-74
2021/12/22 01:36:57;;;;;;;39.83;17.60;;;-4.90;99.90;;;;;;5070746;28;20079;-74
2021/12/22 01:39:24;;;;;;;41.57;18.60;;;-5.00;99.90;;;;;;5070926;28;20088;-74
2021/12/22 01:42:14;;;;;;;47.67;19.97;;;-5.00;99.90;;;;;;5071540;28;20131;-74
2021/12/22 01:45:00;;;;;;;45.20;19.10;;;-4.90;99.90;;;;;;5049232;28;20053;-66
2021/12/22 01:50:15;;;;;;;49.70;19.30;;;-5.00;99.90;;;;;;5051218;28;20055;-67
2021/12/22 01:52:43;;;;;;;46.73;19.70;;;-4.90;99.90;;;;;;5050573;28;20479;-67
2021/12/22 01:55:24;;;;;;;49.30;19.20;;;-5.00;99.90;;;;;;5050411;28;20136;-67
2021/12/22 01:57:53;;;;;;;45.10;19.43;;;-5.00;99.90;;;;;;5050929;28;20116;-68
2021/12/22 02:00:22;;;;;;;52.17;19.37;;;-5.00;99.90;;;;;;5050999;28;20151;-67
2021/12/22 02:02:50;;;;;;;45.20;18.73;;;-5.10;99.90;;;;;;5050188;28;20049;-68
2021/12/22 02:05:17;;;;;;;40.77;17.93;;;-5.00;99.90;;;;;;5049837;28;20092;-67
2021/12/22 02:07:45;;;;;;;41.67;17.03;;;-5.10;99.90;;;;;;5050808;28;20399;-67
2021/12/22 02:10:29;;;;;;;42.60;17.37;;;-5.10;99.90;;;;;;5050861;28;20041;-68
2021/12/22 02:12:59;;;;;;;55.80;22.90;;;-5.10;99.90;;;;;;5050827;28;20052;-67
2021/12/22 02:15:29;;;;;;;67.57;23.07;;;-5.10;99.90;;;;;;5050067;28;20504;-67
2021/12/22 02:17:58;;;;;;;55.60;21.73;;;-5.20;99.90;;;;;;5050544;28;20416;-67
2021/12/22 02:20:27;;;;;;;52.50;18.67;;;-5.20;99.90;;;;;;5050916;28;20140;-67
2021/12/22 02:22:55;;;;;;;51.97;19.90;;;-5.20;99.90;;;;;;5050585;28;20479;-67
2021/12/22 02:25:31;;;;;;;44.87;18.50;;;-5.30;99.90;;;;;;5050141;28;20053;-68
2021/12/22 02:27:59;;;;;;;54.03;20.05;;;-5.30;99.90;;;;;;5050440;28;20049;-67
2021/12/22 02:30:28;;;;;;;47.07;19.90;;;-5.20;99.90;;;;;;5050304;28;20088;-68
2021/12/22 02:35:44;;;;;;;44.73;17.70;;;-5.20;99.90;;;;;;5047645;28;20045;-68
2021/12/22 02:38:17;;;;;;;43.63;18.47;;;-5.20;99.90;;;;;;5057683;28;20057;-68
2021/12/22 02:40:45;;;;;;;39.30;17.60;;;-5.20;99.90;;;;;;5059891;28;20527;-68
2021/12/22 02:43:18;;;;;;;39.47;16.63;;;-5.20;99.90;;;;;;5051808;28;20138;-68
2021/12/22 02:45:45;;;;;;;35.70;16.77;;;-5.10;99.90;;;;;;5049598;28;20125;-68
2021/12/22 02:48:12;;;;;;;42.03;18.43;;;-5.20;99.90;;;;;;5050142;28;20084;-68
2021/12/22 02:50:40;;;;;;;46.13;18.73;;;-5.20;99.90;;;;;;5050220;28;20088;-68
2021/12/22 02:53:11;;;;;;;50.80;19.80;;;-5.20;99.90;;;;;;5049983;28;20554;-68
2021/12/22 02:55:46;;;;;;;53.07;19.53;;;-5.20;99.90;;;;;;5050092;28;20171;-68
2021/12/22 02:58:16;;;;;;;49.40;19.50;;;-5.20;99.90;;;;;;5050373;28;20520;-68
2021/12/22 03:01:02;;;;;;;43.73;19.10;;;-5.10;99.90;;;;;;5053535;28;20045;-68
2021/12/22 03:03:45;;;;;;;48.53;19.60;;;-5.20;99.90;;;;;;5053696;28;20049;-68
2021/12/22 03:06:19;;;;;;;47.30;18.93;;;-5.20;99.90;;;;;;5052944;28;20496;-68
2021/12/22 03:08:46;;;;;;;49.90;17.97;;;-5.30;99.90;;;;;;5053481;28;20099;-68
2021/12/22 03:11:13;;;;;;;46.60;17.10;;;-5.30;99.90;;;;;;5053480;28;20504;-68
2021/12/22 03:13:40;;;;;;;47.53;18.03;;;-5.40;99.90;;;;;;5053238;28;20049;-68
2021/12/22 03:16:07;;;;;;;43.80;17.90;;;-5.40;99.90;;;;;;5052852;28;20049;-68
2021/12/22 03:18:34;;;;;;;44.47;17.97;;;-5.40;99.90;;;;;;5053117;28;20460;-68
2021/12/22 03:21:13;;;;;;;46.30;17.57;;;-5.50;99.90;;;;;;5053739;28;20053;-68
2021/12/22 03:23:41;;;;;;;46.77;17.57;;;-5.50;99.90;;;;;;5053463;28;20088;-68
2021/12/22 03:26:08;;;;;;;36.70;15.90;;;-5.60;99.90;;;;;;5052544;28;20478;-68
2021/12/22 03:28:35;;;;;;;42.90;17.40;;;-5.50;99.90;;;;;;5052946;28;20463;-68
2021/12/22 03:31:03;;;;;;;42.93;17.40;;;-5.60;99.90;;;;;;5053026;28;20055;-68
2021/12/22 03:33:30;;;;;;;41.13;16.63;;;-5.50;99.90;;;;;;5053077;28;20485;-68
2021/12/22 03:35:57;;;;;;;39.63;17.13;;;-5.50;99.90;;;;;;5052578;28;20088;-68
2021/12/22 03:38:24;;;;;;;33.67;15.93;;;-5.60;99.90;;;;;;5052810;28;20084;-68
2021/12/22 03:40:52;;;;;;;43.07;17.97;;;-5.70;99.90;;;;;;5052702;28;20091;-68
2021/12/22 03:43:19;;;;;;;37.00;16.30;;;-5.60;99.90;;;;;;5072809;28;20484;-68
2021/12/22 03:45:46;;;;;;;35.27;15.97;;;-5.50;99.90;;;;;;5072329;28;20088;-68
2021/12/22 03:48:16;;;;;;;35.07;15.40;;;-5.50;99.90;;;;;;5072544;28;20087;-68
2021/12/22 03:50:44;;;;;;;36.87;16.10;;;-5.50;99.90;;;;;;5072681;28;20055;-68
2021/12/22 03:53:11;;;;;;;36.00;15.70;;;-5.50;99.90;;;;;;5072758;28;20106;-68
2021/12/22 03:55:38;;;;;;;30.97;14.17;;;-5.50;99.90;;;;;;5072091;28;20088;-68
2021/12/22 03:58:06;;;;;;;33.37;14.90;;;-5.60;99.90;;;;;;5072962;28;20475;-68
2021/12/22 04:00:34;;;;;;;33.90;15.03;;;-5.70;99.90;;;;;;5069109;28;20136;-68
2021/12/22 04:03:03;;;;;;;36.50;14.67;;;-5.70;99.90;;;;;;5049507;28;20052;-68
2021/12/22 04:05:30;;;;;;;31.73;14.23;;;-5.70;99.90;;;;;;5043207;28;20049;-68
2021/12/22 04:07:57;;;;;;;36.13;15.60;;;-5.80;99.90;;;;;;5052531;28;20099;-68
2021/12/22 04:10:25;;;;;;;45.10;16.73;;;-5.70;99.90;;;;;;5051923;28;20413;-68
2021/12/22 04:12:53;;;;;;;35.90;15.87;;;-5.60;99.90;;;;;;5063892;28;20082;-68
2021/12/22 04:15:24;;;;;;;30.73;14.57;;;-5.60;99.90;;;;;;5072344;28;20102;-68
2021/12/22 04:17:52;;;;;;;39.37;17.73;;;-5.70;99.90;;;;;;5072106;28;20080;-68
2021/12/22 04:20:18;;;;;;;35.93;14.30;;;-5.70;99.90;;;;;;5069158;28;20056;-68
2021/12/22 04:22:46;;;;;;;30.57;13.50;;;-5.70;99.90;;;;;;5062130;28;20048;-68
2021/12/22 04:25:20;;;;;;;34.77;13.93;;;-5.80;99.90;;;;;;5071401;28;20074;-68
2021/12/22 04:27:47;;;;;;;35.33;15.17;;;-5.70;99.90;;;;;;5072396;28;20088;-68
2021/12/22 04:30:15;;;;;;;33.30;14.37;;;-5.80;99.90;;;;;;5071808;28;20044;-68
2021/12/22 04:32:43;;;;;;;30.73;15.03;;;-5.80;99.90;;;;;;5071935;28;20113;-68
2021/12/22 04:35:10;;;;;;;28.67;13.83;;;-5.90;99.90;;;;;;5071167;28;20088;-68
2021/12/22 04:37:37;;;;;;;28.13;13.67;;;-5.80;99.90;;;;;;5071882;28;20094;-68
2021/12/22 04:40:06;;;;;;;34.07;14.07;;;-5.70;99.90;;;;;;5071502;28;20198;-68
2021/12/22 04:42:32;;;;;;;28.40;13.20;;;-5.80;99.90;;;;;;5071785;28;20048;-68
2021/12/22 04:45:03;;;;;;;28.20;13.27;;;-5.80;99.90;;;;;;5071214;28;20099;-68
2021/12/22 04:47:30;;;;;;;35.30;15.47;;;-5.90;99.90;;;;;;5071866;28;20179;-68
2021/12/22 04:50:00;;;;;;;33.10;13.87;;;-5.80;99.90;;;;;;5071815;28;20546;-68
2021/12/22 04:52:33;;;;;;;33.07;13.70;;;-5.80;99.90;;;;;;5071257;28;20155;-68
2021/12/22 04:55:04;;;;;;;26.57;12.07;;;-5.80;99.90;;;;;;5070896;28;20056;-68
2021/12/22 04:57:31;;;;;;;30.67;13.40;;;-5.90;99.90;;;;;;5071673;28;20143;-67
2021/12/22 04:59:59;;;;;;;30.83;14.27;;;-5.90;99.90;;;;;;5071509;28;20048;-68
2021/12/22 05:02:25;;;;;;;35.77;14.90;;;-5.90;99.90;;;;;;5071248;28;20500;-67
2021/12/22 05:04:52;;;;;;;37.50;15.63;;;-5.80;99.90;;;;;;5070542;28;20492;-67
2021/12/22 05:07:21;;;;;;;38.43;14.73;;;-5.90;99.90;;;;;;5071118;28;20092;-68
2021/12/22 05:09:48;;;;;;;31.47;14.67;;;-5.90;99.90;;;;;;5071110;28;20092;-68
2021/12/22 05:12:15;;;;;;;38.17;14.53;;;-5.90;99.90;;;;;;5071000;28;20110;-68
2021/12/22 05:14:44;;;;;;;36.47;15.27;;;-5.80;99.90;;;;;;5071063;28;20084;-68
2021/12/22 05:17:18;;;;;;;34.07;15.40;;;-5.90;99.90;;;;;;5071102;28;20056;-68
2021/12/22 05:19:45;;;;;;;39.20;15.70;;;-5.80;99.90;;;;;;5071086;28;20059;-68
2021/12/22 05:22:13;;;;;;;39.07;15.13;;;-5.80;99.90;;;;;;5070324;28;20557;-68
2021/12/22 05:24:42;;;;;;;32.43;14.10;;;-5.90;99.90;;;;;;5070664;28;20105;-68
2021/12/22 05:27:11;;;;;;;28.40;13.23;;;-5.90;99.90;;;;;;5070748;28;20091;-67
2021/12/22 05:29:38;;;;;;;30.13;13.50;;;-6.00;99.90;;;;;;5071092;28;20059;-67
2021/12/22 05:32:06;;;;;;;35.07;14.17;;;-6.00;99.90;;;;;;5070942;28;20127;-67
2021/12/22 05:34:34;;;;;;;34.87;14.43;;;-6.10;99.90;;;;;;5070982;28;20045;-68
2021/12/22 05:37:01;;;;;;;33.50;14.07;;;-6.00;99.90;;;;;;5070512;28;20178;-68
2021/12/22 05:39:28;;;;;;;31.00;13.73;;;-6.10;99.90;;;;;;5070802;28;20083;-67
2021/12/22 05:41:57;;;;;;;37.93;13.47;;;-6.00;99.90;;;;;;5070725;28;20198;-68
2021/12/22 05:44:24;;;;;;;30.60;13.03;;;-6.00;99.90;;;;;;5070656;28;20078;-67
2021/12/22 05:46:52;;;;;;;34.73;13.50;;;-5.90;99.90;;;;;;5070309;28;20091;-68
2021/12/22 05:49:19;;;;;;;35.47;14.17;;;-5.70;99.90;;;;;;5070646;28;20106;-68
2021/12/22 05:51:46;;;;;;;33.37;14.80;;;-5.70;99.90;;;;;;5070602;28;20048;-67
2021/12/22 05:54:13;;;;;;;28.83;13.73;;;-5.60;99.90;;;;;;5070729;28;20044;-67
2021/12/22 05:56:40;;;;;;;28.73;13.30;;;-5.60;99.90;;;;;;5069907;28;20048;-68
2021/12/22 05:59:12;;;;;;;32.87;14.03;;;-5.80;99.90;;;;;;5070414;28;20091;-67
2021/12/22 06:01:39;;;;;;;33.23;13.43;;;-5.90;99.90;;;;;;5070558;28;20099;-67
2021/12/22 06:04:07;;;;;;;28.37;14.00;;;-6.00;99.90;;;;;;5070644;28;20048;-68
2021/12/22 06:06:34;;;;;;;38.13;13.90;;;-6.00;99.90;;;;;;5069935;28;20503;-68
2021/12/22 06:09:01;;;;;;;33.17;14.47;;;-6.00;99.90;;;;;;5070574;28;20091;-67
2021/12/22 06:11:28;;;;;;;35.37;12.80;;;-6.00;99.90;;;;;;5070113;28;20503;-68
2021/12/22 06:13:55;;;;;;;30.87;14.30;;;-6.00;99.90;;;;;;5070443;28;20091;-67
2021/12/22 06:16:24;;;;;;;30.40;13.67;;;-6.10;99.90;;;;;;5069942;28;20531;-68
2021/12/22 06:18:57;;;;;;;31.90;13.33;;;-6.10;99.90;;;;;;5070613;28;20095;-68
2021/12/22 06:21:24;;;;;;;34.57;14.43;;;-6.00;99.90;;;;;;5070306;28;20088;-68
2021/12/22 06:23:51;;;;;;;35.73;13.80;;;-5.90;99.90;;;;;;5070480;28;20102;-67
2021/12/22 06:26:18;;;;;;;30.63;14.20;;;-5.80;99.90;;;;;;5069544;28;20053;-68
2021/12/22 06:28:45;;;;;;;30.57;13.47;;;-5.90;99.90;;;;;;5070349;28;20084;-68
2021/12/22 06:31:12;;;;;;;32.30;12.93;;;-5.70;99.90;;;;;;5070143;28;20474;-68
2021/12/22 06:33:41;;;;;;;31.40;15.10;;;-5.90;99.90;;;;;;5071615;28;20044;-68
2021/12/22 06:36:08;;;;;;;28.93;13.70;;;-6.10;99.90;;;;;;5074697;28;20052;-68
2021/12/22 06:38:35;;;;;;;30.20;12.90;;;-6.10;99.90;;;;;;5074771;28;20481;-68
2021/12/22 06:41:04;;;;;;;27.30;13.37;;;-6.10;99.90;;;;;;5073781;28;20084;-68
2021/12/22 06:43:31;;;;;;;31.57;13.57;;;-6.10;99.90;;;;;;5074170;28;20056;-68
2021/12/22 06:45:57;;;;;;;30.33;13.57;;;-6.10;99.90;;;;;;5073246;28;20095;-68
2021/12/22 06:48:24;;;;;;;31.87;13.37;;;-6.10;99.90;;;;;;5073856;28;20076;-68
2021/12/22 06:50:53;;;;;;;26.87;13.37;;;-6.20;99.90;;;;;;5073816;28;20139;-68
2021/12/22 06:53:20;;;;;;;30.67;13.57;;;-6.20;99.90;;;;;;5074010;28;20499;-68
2021/12/22 06:55:47;;;;;;;31.93;13.77;;;-6.20;99.90;;;;;;5073138;28;20558;-68
2021/12/22 06:58:14;;;;;;;30.57;14.53;;;-6.20;99.90;;;;;;5073671;28;20496;-68
2021/12/22 07:00:41;;;;;;;31.30;13.77;;;-6.20;99.90;;;;;;5075512;28;20102;-68
2021/12/22 07:03:08;;;;;;;29.47;14.13;;;-6.20;99.90;;;;;;5073873;28;20053;-68
2021/12/22 07:05:35;;;;;;;29.47;12.93;;;-6.20;99.90;;;;;;5073381;28;20137;-68
2021/12/22 07:08:03;;;;;;;32.23;14.27;;;-6.30;99.90;;;;;;5074848;28;20053;-68
2021/12/22 07:10:31;;;;;;;34.67;15.20;;;-6.20;99.90;;;;;;5073973;28;20045;-68
2021/12/22 07:12:58;;;;;;;30.77;13.47;;;-6.20;99.90;;;;;;5073804;28;20534;-68
2021/12/22 07:15:25;;;;;;;36.73;15.70;;;-6.20;99.90;;;;;;5073371;28;20078;-68
2021/12/22 07:17:52;;;;;;;31.07;13.77;;;-6.20;99.90;;;;;;5073443;28;20087;-68
2021/12/22 07:20:20;;;;;;;32.13;14.70;;;-6.20;99.90;;;;;;5073515;28;20084;-68
2021/12/22 07:22:48;;;;;;;38.23;14.50;;;-6.20;99.90;;;;;;5073456;28;20114;-68
2021/12/22 07:25:23;;;;;;;30.70;13.87;;;-6.20;99.90;;;;;;5072852;28;20082;-68
2021/12/22 07:27:50;;;;;;;32.27;13.33;;;-6.20;99.90;;;;;;5073419;28;20462;-68
2021/12/22 07:30:17;;;;;;;35.43;14.90;;;-6.20;99.90;;;;;;5073172;28;20056;-68
2021/12/22 07:32:44;;;;;;;32.70;13.73;;;-6.10;99.90;;;;;;5073088;28;20491;-68
2021/12/22 07:35:16;;;;;;;36.60;13.90;;;-6.10;99.90;;;;;;5072768;28;20091;-68
2021/12/22 07:37:51;;;;;;;38.20;16.17;;;-6.10;99.90;;;;;;5075109;28;20080;-69
2021/12/22 07:40:20;;;;;;;36.93;15.07;;;-6.10;99.90;;;;;;5076048;28;20052;-68
2021/12/22 07:42:47;;;;;;;37.37;15.63;;;-6.00;99.90;;;;;;5192440;22;20023;-74
2021/12/22 07:45:14;;;;;;;35.73;15.10;;;-6.00;99.90;;;;;;5074791;28;20072;-74
2021/12/22 07:47:42;;;;;;;29.07;13.27;;;-5.90;99.90;;;;;;5075687;28;20392;-74
2021/12/22 07:50:10;;;;;;;38.00;15.57;;;-5.90;99.90;;;;;;5075547;28;20101;-75
2021/12/22 07:52:37;;;;;;;34.30;16.70;;;-5.80;99.90;;;;;;5075901;28;20094;-75
2021/12/22 07:55:05;;;;;;;40.17;16.60;;;-5.70;99.90;;;;;;5075160;28;20107;-75
2021/12/22 07:57:34;;;;;;;33.77;15.17;;;-5.70;99.90;;;;;;5075544;28;20072;-73
2021/12/22 08:00:01;;;;;;;44.23;16.67;;;-5.70;99.90;;;;;;5075744;28;20084;-73
2021/12/22 08:02:28;;;;;;;40.57;17.83;;;-5.50;99.90;;;;;;5076127;28;20098;-73
2021/12/22 08:04:55;;;;;;;42.57;17.37;;;-5.50;99.90;;;;;;5076235;28;20040;-73
2021/12/22 08:07:22;;;;;;;39.70;16.63;;;-5.50;99.90;;;;;;5075950;28;20052;-74
2021/12/22 08:09:49;;;;;;;41.90;15.93;;;-5.40;99.90;;;;;;5075705;28;20098;-73
2021/12/22 08:12:16;;;;;;;37.70;15.37;;;-5.30;99.90;;;;;;5075535;28;20102;-74
2021/12/22 08:14:44;;;;;;;37.10;16.30;;;-5.20;99.90;;;;;;5074933;28;20075;-73
2021/12/22 08:17:13;;;;;;;36.10;16.00;;;-5.20;99.90;;;;;;5075746;28;20079;-73
2021/12/22 08:19:40;;;;;;;41.63;16.97;;;-5.10;99.90;;;;;;5075570;28;20116;-73
2021/12/22 08:22:08;;;;;;;40.90;16.50;;;-5.00;99.90;;;;;;5074757;28;20087;-73
2021/12/22 08:24:37;;;;;;;38.10;16.43;;;-5.00;99.90;;;;;;5074798;28;20135;-74
2021/12/22 08:27:07;;;;;;;41.23;15.47;;;-4.90;99.90;;;;;;5073022;28;20419;-74
2021/12/22 08:29:33;;;;;;;34.30;15.40;;;-4.90;99.90;;;;;;5073813;28;20049;-74
2021/12/22 08:32:03;;;;;;;31.33;14.00;;;-4.90;99.90;;;;;;5073101;28;20141;-74
2021/12/22 08:34:36;;;;;;;31.90;13.80;;;-4.70;99.90;;;;;;5073225;28;20084;-74
2021/12/22 08:39:49;;;;;;;33.23;14.30;;;-4.70;99.90;;;;;;5073559;28;20531;-74
2021/12/22 08:42:16;;;;;;;30.63;13.37;;;-4.50;99.90;;;;;;5072341;28;20488;-75
2021/12/22 08:44:43;;;;;;;31.20;14.63;;;-4.40;99.90;;;;;;5072003;28;20131;-74
2021/12/22 08:47:12;;;;;;;32.73;14.27;;;-4.30;99.90;;;;;;5071994;28;20045;-75
2021/12/22 08:49:39;;;;;;;31.43;14.27;;;-4.30;99.90;;;;;;5072093;28;20076;-75
2021/12/22 08:52:06;;;;;;;32.03;14.70;;;-4.20;99.90;;;;;;5071257;28;20102;-74
2021/12/22 08:54:33;;;;;;;34.37;15.47;;;-4.10;99.90;;;;;;5071561;28;20084;-75
2021/12/22 08:57:01;;;;;;;28.47;13.33;;;-3.80;99.90;;;;;;5070297;28;20413;-75
2021/12/22 08:59:28;;;;;;;29.30;13.70;;;-3.70;99.90;;;;;;5071088;28;20539;-75
2021/12/22 09:01:55;;;;;;;29.83;14.20;;;-3.60;99.90;;;;;;5071390;28;20459;-75
2021/12/22 09:04:23;;;;;;;27.83;13.67;;;-3.40;99.90;;;;;;5071188;28;20083;-75
2021/12/22 09:06:52;;;;;;;30.63;14.70;;;-3.10;99.90;;;;;;5070889;28;20098;-75
2021/12/22 09:09:20;;;;;;;27.73;14.23;;;-2.10;99.90;;;;;;5071302;28;20049;-74
2021/12/22 09:11:48;;;;;;;32.97;14.37;;;-1.50;99.90;;;;;;5070869;28;20118;-76
2021/12/22 09:14:15;;;;;;;30.53;12.87;;;-1.20;99.90;;;;;;5070869;28;20132;-74
2021/12/22 09:16:42;;;;;;;29.80;13.90;;;0.80;99.90;;;;;;5070878;28;20579;-79
2021/12/22 09:19:11;;;;;;;30.43;12.70;;;1.90;99.90;;;;;;5071142;28;20056;-75
2021/12/22 09:21:39;;;;;;;26.37;13.03;;;2.60;99.90;;;;;;5071408;28;20056;-77
2021/12/22 09:24:07;;;;;;;24.80;14.20;;;2.50;99.90;;;;;;5073166;28;20408;-73
2021/12/22 09:26:35;;;;;;;28.33;14.87;;;3.10;99.90;;;;;;5072884;28;20531;-74
2021/12/22 09:29:02;;;;;;;28.30;14.47;;;3.00;99.90;;;;;;5073027;28;20101;-74
2021/12/22 09:31:29;;;;;;;32.20;14.83;;;3.10;99.90;;;;;;5072984;28;20527;-73
2021/12/22 09:33:56;;;;;;;26.97;14.40;;;5.30;99.90;;;;;;5072669;28;20052;-74
2021/12/22 09:36:23;;;;;;;25.23;13.83;;;7.10;99.90;;;;;;5072639;28;20098;-75
2021/12/22 09:38:52;;;;;;;24.85;12.90;;;7.60;99.90;;;;;;5072259;28;20151;-75
2021/12/22 09:41:19;;;;;;;29.23;13.60;;;8.20;99.90;;;;;;5072390;28;20048;-74
2021/12/22 09:43:46;;;;;;;21.63;13.88;;;8.60;99.90;;;;;;5071843;28;20110;-74
2021/12/22 09:46:18;;;;;;;23.83;13.60;;;7.20;99.90;;;;;;5071210;28;20492;-74
2021/12/22 09:48:58;;;;;;;24.77;13.98;;;7.30;99.90;;;;;;5071018;28;20417;-73
2021/12/22 09:54:13;;;;;;;23.60;14.23;;;9.50;99.20;;;;;;5070438;28;20113;-71
2021/12/22 09:56:42;;;;;;;28.45;15.73;;;10.00;97.80;;;;;;5070264;28;20090;-71
2021/12/22 09:59:10;;;;;;;27.17;15.35;;;11.50;96.90;;;;;;5070463;28;20404;-71
2021/12/22 10:01:38;;;;;;;24.25;15.38;;;12.50;96.40;;;;;;5070289;28;20064;-71
2021/12/22 10:04:05;;;;;;;29.55;15.15;;;13.10;94.90;;;;;;5070335;28;20091;-72
2021/12/22 10:06:32;;;;;;;27.63;16.05;;;13.60;94.70;;;;;;5070111;28;20091;-71
2021/12/22 10:09:03;;;;;;;24.05;15.23;;;13.80;95.10;;;;;;5073751;28;20138;-71
2021/12/22 10:11:34;;;;;;;38.60;16.20;;;14.20;94.30;;;;;;5074440;28;20045;-71
2021/12/22 10:14:01;;;;;;;28.13;17.70;;;14.60;93.60;;;;;;5074156;28;20048;-71
2021/12/22 10:16:29;;;;;;;27.88;16.90;;;14.30;92.50;;;;;;5073564;28;20565;-71
2021/12/22 10:19:06;;;;;;;26.10;16.52;;;15.10;92.50;;;;;;5074392;28;20468;-72
2021/12/22 10:21:36;;;;;;;33.00;17.17;;;15.70;92.10;;;;;;5074417;28;20094;-72
2021/12/22 10:24:06;;;;;;;33.03;19.75;;;14.80;91.60;;;;;;5074349;28;20060;-71
2021/12/22 10:26:35;;;;;;;31.48;19.42;;;14.20;91.50;;;;;;5073674;28;20409;-71
2021/12/22 10:29:05;;;;;;;39.10;20.38;;;14.30;91.90;;;;;;5074062;28;20094;-71
2021/12/22 10:31:40;;;;;;;44.08;22.67;;;12.80;92.90;;;;;;5074007;28;20504;-71
2021/12/22 10:34:10;;;;;;;32.50;20.38;;;14.40;92.90;;;;;;5073913;28;20090;-71
2021/12/22 10:36:45;;;;;;;31.85;20.00;;;14.00;93.10;;;;;;5073535;28;20534;-72
2021/12/22 10:39:21;;;;;;;28.65;17.90;;;13.90;93.10;;;;;;5073681;28;20131;-72
2021/12/22 10:41:51;;;;;;;29.80;17.47;;;13.80;93.10;;;;;;5074077;28;20075;-72
2021/12/22 10:44:18;;;;;;;27.80;18.55;;;13.60;93.10;;;;;;5073707;28;20095;-72
2021/12/22 10:46:46;;;;;;;26.70;17.15;;;12.80;93.70;;;;;;5073393;28;20080;-72
2021/12/22 10:49:14;;;;;;;25.70;16.85;;;11.70;93.90;;;;;;5073650;28;20056;-73
2021/12/22 10:51:42;;;;;;;26.20;15.88;;;11.10;93.60;;;;;;5073327;28;20056;-72
2021/12/22 10:54:11;;;;;;;23.48;17.05;;;12.40;93.40;;;;;;5073428;28;20055;-72
2021/12/22 10:56:40;;;;;;;25.60;17.02;;;11.50;92.40;;;;;;5073354;28;20127;-72
2021/12/22 10:59:11;;;;;;;27.92;17.55;;;12.40;92.70;;;;;;5073371;28;20048;-73
2021/12/22 11:01:40;;;;;;;25.52;17.70;;;12.60;92.60;;;;;;5073865;28;20053;-72
2021/12/22 11:04:16;;;;;;;31.77;16.05;;;13.30;93.80;;;;;;5072999;28;20102;-72
2021/12/22 11:06:43;;;;;;;25.10;16.80;;;11.60;92.90;;;;;;5073130;28;20511;-72
2021/12/22 11:09:14;;;;;;;24.55;15.27;;;11.50;93.10;;;;;;5073080;28;20303;-72
2021/12/22 11:11:43;;;;;;;26.15;15.60;;;13.40;93.90;;;;;;5073276;28;20044;-72
2021/12/22 11:14:14;;;;;;;25.25;15.80;;;13.40;93.30;;;;;;5073336;28;20449;-72
2021/12/22 11:17:02;;;;;;;25.45;17.00;;;13.10;92.10;;;;;;5072777;28;20094;-72
2021/12/22 11:19:31;;;;;;;29.38;16.23;;;13.20;92.90;;;;;;5072490;28;20427;-72
2021/12/22 11:22:08;;;;;;;26.40;14.63;;;14.20;92.00;;;;;;5073468;28;20391;-73
2021/12/22 11:24:36;;;;;;;;;;;14.60;93.00;;;;;;5073211;28;20055;-72
2021/12/22 11:27:05;;;;;;;25.17;15.90;;;14.80;92.40;;;;;;5072600;28;19966;-73
2021/12/22 11:29:35;;;;;;;25.63;14.80;;;15.30;92.90;;;;;;5072945;28;20056;-72
2021/12/22 11:32:05;;;;;;;22.42;14.52;;;13.60;91.40;;;;;;5072940;28;20084;-72
2021/12/22 11:34:35;;;;;;;26.48;15.27;;;14.20;92.90;;;;;;5072654;28;20053;-73
2021/12/22 11:37:02;;;;;;;20.70;14.07;;;14.60;93.30;;;;;;5072578;28;20086;-73
2021/12/22 11:39:31;;;;;;;24.58;12.85;;;13.90;93.20;;;;;;5073053;28;20439;-73
2021/12/22 11:42:01;;;;;;;24.58;13.23;;;11.70;93.30;;;;;;5073159;28;20072;-73
2021/12/22 11:44:29;;;;;;;20.55;12.10;;;11.10;94.40;;;;;;5072701;28;20048;-73
2021/12/22 11:47:00;;;;;;;20.17;11.73;;;10.30;96.20;;;;;;5072246;28;20099;-73
2021/12/22 11:49:29;;;;;;;19.92;10.98;;;9.90;96.40;;;;;;5072571;28;20106;-73
2021/12/22 11:51:57;;;;;;;17.95;10.40;;;10.40;95.60;;;;;;5072969;28;20579;-73
2021/12/22 11:54:27;;;;;;;19.45;10.93;;;8.90;97.10;;;;;;5072152;28;20060;-72
2021/12/22 11:56:57;;;;;;;18.75;11.98;;;10.10;96.90;;;;;;5072752;28;20110;-73
2021/12/22 11:59:36;;;;;;;20.38;11.82;;;9.60;98.50;;;;;;5072505;28;20056;-73
2021/12/22 12:02:21;;;;;;;18.45;11.73;;;8.80;97.30;;;;;;5059711;28;20155;-73
2021/12/22 12:04:51;;;;;;;17.23;10.25;;;8.40;99.20;;;;;;5068963;28;20053;-73
2021/12/22 12:07:43;;;;;;;19.98;11.35;;;7.90;98.30;;;;;;5072648;28;20056;-73
2021/12/22 12:10:32;;;;;;;21.20;11.30;;;8.20;99.90;;;;;;5061569;28;20044;-73
2021/12/22 12:13:04;;;;;;;18.83;10.65;;;7.70;99.90;;;;;;5072472;28;20048;-73
2021/12/22 12:21:38;;;;;;;18.13;10.77;;;7.30;99.90;;;;;;5071946;28;20764;-73
2021/12/22 12:22:07;;;;;;;21.80;13.10;;;6.50;99.90;;;;;;5072571;28;20060;-73
2021/12/22 12:24:41;;;;;;;21.52;11.57;;;7.10;99.90;;;;;;5072806;28;20078;-73
2021/12/22 12:27:47;;;;;;;17.70;10.80;;;6.90;99.90;;;;;;5072527;28;20101;-75
2021/12/22 12:30:26;;;;;;;21.13;12.23;;;7.30;99.90;;;;;;5068941;28;20554;-72
2021/12/22 12:33:19;;;;;;;25.23;13.23;;;9.20;99.90;;;;;;5071921;28;20040;-73
2021/12/22 12:35:57;;;;;;;20.35;11.75;;;11.00;98.10;;;;;;5071279;28;20079;-73
2021/12/22 12:38:27;;;;;;;23.70;12.52;;;12.10;96.80;;;;;;5071926;28;20056;-72
2021/12/22 12:41:25;;;;;;;18.30;11.57;;;11.70;96.00;;;;;;5072113;28;20079;-72
2021/12/22 12:44:15;;;;;;;21.08;12.15;;;11.60;96.10;;;;;;5071788;28;20493;-72
2021/12/22 12:46:51;;;;;;;18.70;9.70;;;12.00;95.90;;;;;;5063108;28;20428;-72
2021/12/22 12:49:46;;;;;;;15.98;9.45;;;11.10;95.00;;;;;;5072368;28;20117;-72
2021/12/22 12:52:26;;;;;;;15.90;8.90;;;10.00;97.60;;;;;;5071789;28;20040;-73
2021/12/22 12:55:11;;;;;;;17.17;9.02;;;10.10;95.60;;;;;;5071303;28;20578;-76